createdAt,value
2018-06-07T00:00:52.642Z,71.50
2018-06-07T00:01:52.565Z,70.73
2018-06-07T00:02:52.521Z,70.83
2018-06-07T00:03:52.482Z,71.31
2018-06-07T00:04:52.438Z,71.22
2018-06-07T00:05:52.434Z,71.31
2018-06-07T00:06:52.353Z,71.50
2018-06-07T00:07:52.311Z,70.98
2018-06-07T00:08:52.272Z,71.22
2018-06-07T00:09:52.228Z,70.98
2018-06-07T00:10:52.232Z,71.50
2018-06-07T00:11:52.142Z,71.31
2018-06-07T00:12:52.103Z,71.18
2018-06-07T00:13:52.065Z,71.02
2018-06-07T00:14:52.020Z,70.98
2018-06-07T00:15:52.006Z,71.66
2018-06-07T00:16:51.930Z,71.18
2018-06-07T00:17:51.891Z,70.92
2018-06-07T00:18:51.880Z,70.92
2018-06-07T00:19:51.810Z,70.98
2018-06-07T00:20:51.761Z,70.98
2018-06-07T00:21:51.719Z,70.89
2018-06-07T00:22:51.677Z,70.89
2018-06-07T00:23:51.659Z,71.18
2018-06-07T00:24:51.625Z,71.28
2018-06-07T00:25:51.551Z,70.89
2018-06-07T00:26:51.511Z,70.89
2018-06-07T00:27:51.465Z,70.89
2018-06-07T00:28:51.424Z,71.18
2018-06-07T00:29:51.414Z,71.56
2018-06-07T00:30:51.339Z,70.89
2018-06-07T00:31:51.297Z,71.18
2018-06-07T00:32:51.287Z,70.98
2018-06-07T00:33:51.212Z,71.08
2018-06-07T00:34:51.208Z,71.08
2018-06-07T00:35:51.138Z,70.98
2018-06-07T00:36:51.082Z,70.70
2018-06-07T00:37:51.042Z,70.60
2018-06-07T00:38:51.000Z,70.50
2018-06-07T00:39:50.991Z,70.12
2018-06-07T00:40:50.915Z,70.06
2018-06-07T00:41:50.870Z,69.83
2018-06-07T00:42:50.829Z,70.35
2018-06-07T00:43:50.789Z,70.02
2018-06-07T00:44:50.776Z,70.02
2018-06-07T00:45:50.703Z,70.31
2018-06-07T00:46:50.659Z,69.73
2018-06-07T00:47:50.619Z,69.57
2018-06-07T00:48:50.574Z,69.77
2018-06-07T00:49:50.562Z,69.87
2018-06-07T00:50:50.490Z,69.54
2018-06-07T00:51:50.487Z,69.77
2018-06-07T00:52:50.405Z,69.73
2018-06-07T00:53:50.361Z,69.48
2018-06-07T00:54:50.318Z,69.73
2018-06-07T00:55:50.278Z,69.54
2018-06-07T00:56:50.268Z,69.73
2018-06-07T00:57:50.192Z,69.35
2018-06-07T00:58:50.165Z,69.64
2018-06-07T00:59:50.138Z,69.57
2018-06-07T01:00:50.066Z,69.06
2018-06-07T01:01:50.020Z,69.25
2018-06-07T01:02:50.025Z,69.45
2018-06-07T01:03:49.937Z,69.15
2018-06-07T01:04:49.895Z,69.06
2018-06-07T01:05:49.850Z,69.45
2018-06-07T01:06:49.807Z,69.35
2018-06-07T01:07:49.796Z,69.19
2018-06-07T01:08:49.724Z,69.35
2018-06-07T01:09:49.687Z,69.15
2018-06-07T01:10:49.637Z,68.96
2018-06-07T01:11:49.601Z,69.06
2018-06-07T01:12:49.593Z,69.35
2018-06-07T01:13:49.507Z,69.06
2018-06-07T01:14:49.509Z,68.61
2018-06-07T01:15:49.424Z,68.80
2018-06-07T01:16:49.381Z,69.06
2018-06-07T01:17:49.341Z,69.06
2018-06-07T01:18:49.298Z,68.77
2018-06-07T01:19:49.277Z,68.68
2018-06-07T01:20:49.210Z,68.77
2018-06-07T01:21:49.170Z,68.48
2018-06-07T01:22:49.162Z,68.68
2018-06-07T01:23:49.082Z,68.42
2018-06-07T01:24:49.075Z,69.06
2018-06-07T01:25:48.997Z,68.99
2018-06-07T01:26:48.992Z,69.19
2018-06-07T01:27:48.915Z,69.64
2018-06-07T01:28:48.868Z,69.35
2018-06-07T01:29:48.828Z,69.54
2018-06-07T01:30:48.785Z,69.83
2018-06-07T01:31:48.774Z,69.54
2018-06-07T01:32:48.700Z,69.54
2018-06-07T01:33:48.659Z,70.41
2018-06-07T01:34:48.616Z,70.12
2018-06-07T01:35:48.624Z,69.73
2018-06-07T01:36:48.528Z,69.73
2018-06-07T01:37:48.493Z,70.41
2018-06-07T01:38:48.445Z,69.73
2018-06-07T01:39:48.401Z,70.31
2018-06-07T01:40:48.394Z,70.60
2018-06-07T01:41:48.317Z,71.08
2018-06-07T01:42:48.276Z,71.56
2018-06-07T01:43:48.269Z,70.79
2018-06-07T01:44:48.186Z,71.62
2018-06-07T01:45:48.178Z,72.01
2018-06-07T01:46:48.102Z,71.91
2018-06-07T01:47:48.059Z,72.49
2018-06-07T01:48:48.017Z,72.88
2018-06-07T01:49:48.008Z,73.32
2018-06-07T01:50:47.933Z,73.61
2018-06-07T01:51:47.920Z,73.80
2018-06-07T01:52:47.848Z,74.09
2018-06-07T01:53:47.806Z,74.67
2018-06-07T01:54:47.761Z,74.76
2018-06-07T01:55:47.721Z,74.86
2018-06-07T01:56:47.709Z,74.92
2018-06-07T01:57:47.638Z,75.79
2018-06-07T01:58:47.590Z,75.02
2018-06-07T01:59:47.548Z,75.31
2018-06-07T02:00:47.504Z,75.49
2018-06-07T02:01:47.494Z,75.59
2018-06-07T02:02:47.426Z,75.69
2018-06-07T02:03:47.379Z,76.36
2018-06-07T02:04:47.337Z,76.26
2018-06-07T02:05:47.292Z,75.94
2018-06-07T02:06:47.293Z,76.32
2018-06-07T02:07:47.211Z,77.00
2018-06-07T02:08:47.165Z,77.09
2018-06-07T02:09:47.124Z,77.00
2018-06-07T02:10:47.081Z,77.48
2018-06-07T02:11:47.077Z,77.86
2018-06-07T02:12:46.993Z,78.25
2018-06-07T02:13:46.951Z,77.76
2018-06-07T02:14:46.907Z,78.15
2018-06-07T02:15:46.864Z,78.15
2018-06-07T02:16:46.854Z,78.34
2018-06-07T02:17:46.817Z,78.34
2018-06-07T02:18:46.744Z,78.44
2018-06-07T02:19:46.692Z,79.40
2018-06-07T02:20:46.684Z,79.46
2018-06-07T02:21:46.613Z,79.36
2018-06-07T02:22:46.565Z,79.65
2018-06-07T02:23:46.523Z,80.22
2018-06-07T02:24:46.520Z,80.22
2018-06-07T02:25:46.437Z,80.61
2018-06-07T02:26:46.393Z,80.61
2018-06-07T02:27:46.351Z,80.86
2018-06-07T02:28:46.305Z,81.24
2018-06-07T02:29:46.299Z,81.53
2018-06-07T02:30:46.253Z,81.53
2018-06-07T02:31:46.179Z,81.34
2018-06-07T02:32:46.139Z,81.43
2018-06-07T02:33:46.091Z,82.01
2018-06-07T02:34:46.048Z,82.01
2018-06-07T02:35:46.045Z,81.63
2018-06-07T02:36:45.962Z,81.82
2018-06-07T02:37:45.917Z,82.01
2018-06-07T02:38:45.876Z,82.10
2018-06-07T02:39:45.834Z,82.40
2018-06-07T02:40:45.821Z,82.45
2018-06-07T02:41:45.777Z,82.78
2018-06-07T02:42:45.701Z,83.03
2018-06-07T02:43:45.657Z,82.84
2018-06-07T02:44:45.615Z,82.97
2018-06-07T02:45:45.580Z,83.03
2018-06-07T02:46:45.564Z,82.84
2018-06-07T02:47:45.487Z,83.41
2018-06-07T02:48:45.475Z,83.12
2018-06-07T02:49:45.399Z,83.60
2018-06-07T02:50:45.364Z,83.03
2018-06-07T02:51:45.314Z,83.51
2018-06-07T02:52:45.301Z,83.60
2018-06-07T02:53:45.224Z,83.98
2018-06-07T02:54:45.181Z,84.08
2018-06-07T02:55:45.141Z,84.56
2018-06-07T02:56:45.094Z,84.47
2018-06-07T02:57:45.092Z,84.27
2018-06-07T02:58:45.009Z,84.37
2018-06-07T02:59:44.964Z,84.75
2018-06-07T03:00:44.918Z,84.61
2018-06-07T03:01:44.875Z,85.86
2018-06-07T03:02:44.862Z,85.48
2018-06-07T03:03:44.790Z,86.05
2018-06-07T03:04:44.742Z,86.34
2018-06-07T03:05:44.735Z,85.96
2018-06-07T03:06:44.658Z,86.54
2018-06-07T03:07:44.613Z,86.34
2018-06-07T03:08:44.571Z,86.15
2018-06-07T03:09:44.528Z,86.05
2018-06-07T03:10:44.514Z,86.05
2018-06-07T03:11:44.439Z,85.86
2018-06-07T03:12:44.398Z,85.96
2018-06-07T03:13:44.353Z,85.86
2018-06-07T03:14:44.340Z,85.58
2018-06-07T03:15:44.264Z,85.58
2018-06-07T03:16:44.258Z,86.05
2018-06-07T03:17:44.174Z,85.58
2018-06-07T03:18:44.133Z,85.58
2018-06-07T03:19:44.089Z,85.28
2018-06-07T03:20:44.044Z,85.77
2018-06-07T03:21:44.040Z,85.48
2018-06-07T03:22:43.956Z,86.15
2018-06-07T03:23:43.915Z,85.48
2018-06-07T03:24:43.869Z,85.86
2018-06-07T03:25:43.824Z,85.86
2018-06-07T03:26:43.818Z,85.77
2018-06-07T03:27:43.777Z,85.58
2018-06-07T03:28:43.694Z,85.38
2018-06-07T03:29:43.650Z,85.86
2018-06-07T03:30:43.609Z,86.44
2018-06-07T03:31:43.564Z,86.05
2018-06-07T03:32:43.557Z,85.48
2018-06-07T03:33:43.477Z,85.53
2018-06-07T03:34:43.430Z,86.40
2018-06-07T03:35:43.387Z,87.07
2018-06-07T03:36:43.349Z,86.49
2018-06-07T03:37:43.332Z,86.68
2018-06-07T03:38:43.255Z,87.26
2018-06-07T03:39:43.245Z,87.35
2018-06-07T03:40:43.166Z,87.45
2018-06-07T03:41:43.127Z,87.55
2018-06-07T03:42:43.112Z,87.35
2018-06-07T03:43:43.067Z,87.64
2018-06-07T03:44:42.991Z,87.64
2018-06-07T03:45:42.947Z,87.55
2018-06-07T03:46:42.905Z,87.45
2018-06-07T03:47:42.861Z,87.55
2018-06-07T03:48:42.849Z,86.88
2018-06-07T03:49:42.769Z,86.21
2018-06-07T03:50:42.727Z,86.40
2018-06-07T03:51:42.681Z,87.07
2018-06-07T03:52:42.689Z,86.88
2018-06-07T03:53:42.625Z,87.16
2018-06-07T03:54:42.550Z,86.97
2018-06-07T03:55:42.539Z,87.07
2018-06-07T03:56:42.465Z,87.07
2018-06-07T03:57:42.420Z,86.58
2018-06-07T03:58:42.372Z,86.68
2018-06-07T03:59:42.332Z,86.78
2018-06-07T04:00:42.320Z,87.45
2018-06-07T04:01:42.239Z,86.88
2018-06-07T04:02:42.198Z,87.16
2018-06-07T04:03:42.152Z,87.64
2018-06-07T04:04:42.105Z,87.35
2018-06-07T04:05:42.094Z,88.12
2018-06-07T04:06:42.017Z,87.74
2018-06-07T04:07:41.973Z,88.12
2018-06-07T04:08:41.931Z,88.98
2018-06-07T04:09:41.919Z,88.79
2018-06-07T04:10:41.841Z,88.02
2018-06-07T04:11:41.797Z,87.93
2018-06-07T04:12:41.751Z,88.02
2018-06-07T04:13:41.708Z,88.60
2018-06-07T04:14:41.696Z,88.89
2018-06-07T04:15:41.620Z,89.08
2018-06-07T04:16:41.575Z,88.51
2018-06-07T04:17:41.533Z,88.41
2018-06-07T04:18:41.527Z,87.84
2018-06-07T04:19:41.441Z,87.64
2018-06-07T04:20:41.401Z,88.12
2018-06-07T04:21:41.352Z,88.02
2018-06-07T04:22:41.315Z,88.41
2018-06-07T04:23:41.289Z,89.13
2018-06-07T04:24:41.218Z,89.56
2018-06-07T04:25:41.177Z,89.94
2018-06-07T04:26:41.134Z,89.90
2018-06-07T04:27:41.087Z,89.90
2018-06-07T04:28:41.078Z,91.24
2018-06-07T04:29:41.034Z,90.57
2018-06-07T04:30:40.957Z,90.19
2018-06-07T04:31:40.915Z,90.38
2018-06-07T04:32:40.865Z,90.23
2018-06-07T04:33:40.852Z,90.00
2018-06-07T04:34:40.814Z,89.90
2018-06-07T04:35:40.733Z,89.94
2018-06-07T04:36:40.706Z,89.94
2018-06-07T04:37:40.645Z,89.85
2018-06-07T04:38:40.599Z,89.27
2018-06-07T04:39:40.589Z,89.56
2018-06-07T04:40:40.512Z,89.27
2018-06-07T04:41:40.467Z,89.08
2018-06-07T04:42:40.424Z,89.08
2018-06-07T04:43:40.377Z,89.18
2018-06-07T04:44:40.366Z,89.03
2018-06-07T04:45:40.288Z,88.55
2018-06-07T04:46:40.248Z,88.74
2018-06-07T04:47:40.202Z,87.98
2018-06-07T04:48:40.194Z,88.07
2018-06-07T04:49:40.112Z,88.65
2018-06-07T04:50:40.071Z,88.74
2018-06-07T04:51:40.073Z,88.07
2018-06-07T04:52:39.978Z,88.07
2018-06-07T04:53:39.936Z,88.07
2018-06-07T04:54:39.896Z,87.98
2018-06-07T04:55:39.848Z,88.17
2018-06-07T04:56:39.853Z,87.98
2018-06-07T04:57:39.760Z,88.45
2018-06-07T04:58:39.719Z,88.35
2018-06-07T04:59:39.676Z,87.98
2018-06-07T05:00:39.629Z,87.88
2018-06-07T05:01:39.628Z,87.59
2018-06-07T05:02:39.540Z,87.68
2018-06-07T05:03:39.494Z,88.84
2018-06-07T05:04:39.453Z,87.49
2018-06-07T05:05:39.407Z,87.40
2018-06-07T05:06:39.489Z,87.73
2018-06-07T05:07:39.320Z,87.82
2018-06-07T05:08:39.273Z,87.44
2018-06-07T05:09:39.233Z,87.82
2018-06-07T05:10:39.185Z,88.02
2018-06-07T05:11:39.175Z,87.82
2018-06-07T05:12:39.098Z,87.82
2018-06-07T05:13:39.058Z,87.82
2018-06-07T05:14:39.044Z,87.73
2018-06-07T05:15:38.967Z,87.44
2018-06-07T05:16:38.938Z,87.05
2018-06-07T05:17:38.878Z,87.35
2018-06-07T05:18:38.835Z,86.96
2018-06-07T05:19:38.832Z,86.52
2018-06-07T05:20:38.747Z,86.43
2018-06-07T05:21:38.708Z,87.01
2018-06-07T05:22:38.659Z,87.01
2018-06-07T05:23:38.614Z,86.72
2018-06-07T05:24:38.601Z,86.43
2018-06-07T05:25:38.528Z,86.14
2018-06-07T05:26:38.484Z,85.61
2018-06-07T05:27:38.473Z,85.51
2018-06-07T05:28:38.395Z,85.41
2018-06-07T05:29:38.352Z,85.22
2018-06-07T05:30:38.307Z,84.36
2018-06-07T05:31:38.263Z,84.45
2018-06-07T05:32:38.256Z,84.50
2018-06-07T05:33:38.177Z,85.84
2018-06-07T05:34:38.131Z,85.75
2018-06-07T05:35:38.092Z,84.21
2018-06-07T05:36:38.045Z,83.83
2018-06-07T05:37:38.034Z,83.15
2018-06-07T05:38:37.960Z,84.01
2018-06-07T05:39:37.916Z,83.63
2018-06-07T05:40:37.871Z,83.58
2018-06-07T05:41:37.826Z,84.25
2018-06-07T05:42:37.817Z,83.39
2018-06-07T05:43:37.773Z,83.29
2018-06-07T05:44:37.697Z,83.09
2018-06-07T05:45:37.656Z,82.61
2018-06-07T05:46:37.610Z,82.52
2018-06-07T05:47:37.606Z,82.14
2018-06-07T05:48:37.520Z,82.08
2018-06-07T05:49:37.481Z,81.88
2018-06-07T05:50:37.434Z,81.40
2018-06-07T05:51:37.454Z,81.60
2018-06-07T05:52:37.387Z,81.21
2018-06-07T05:53:37.321Z,80.73
2018-06-07T05:54:37.260Z,80.06
2018-06-07T05:55:37.221Z,79.67
2018-06-07T05:56:37.180Z,79.96
2018-06-07T05:57:37.216Z,79.28
2018-06-07T05:58:37.130Z,79.33
2018-06-07T05:59:37.084Z,79.19
2018-06-07T06:00:37.003Z,79.52
2018-06-07T06:01:36.963Z,77.59
2018-06-07T06:02:36.916Z,77.59
2018-06-07T06:03:36.904Z,78.27
2018-06-07T06:04:36.830Z,77.98
2018-06-07T06:05:36.953Z,77.88
2018-06-07T06:06:36.745Z,78.36
2018-06-07T06:07:36.703Z,77.63
2018-06-07T06:08:36.659Z,77.06
2018-06-07T06:09:36.653Z,76.96
2018-06-07T06:10:36.608Z,76.96
2018-06-07T06:11:36.529Z,77.44
2018-06-07T06:12:36.488Z,76.96
2018-06-07T06:13:36.466Z,77.15
2018-06-07T06:14:36.400Z,77.83
2018-06-07T06:15:36.357Z,76.86
2018-06-07T06:16:36.316Z,76.76
2018-06-07T06:17:36.309Z,76.38
2018-06-07T06:18:36.227Z,76.76
2018-06-07T06:19:36.185Z,76.18
2018-06-07T06:20:36.141Z,76.48
2018-06-07T06:21:36.131Z,76.18
2018-06-07T06:22:36.061Z,76.03
2018-06-07T06:23:36.016Z,75.55
2018-06-07T06:24:36.009Z,75.71
2018-06-07T06:25:35.930Z,75.93
2018-06-07T06:26:35.887Z,75.65
2018-06-07T06:27:35.847Z,74.78
2018-06-07T06:28:35.843Z,74.88
2018-06-07T06:29:35.761Z,75.74
2018-06-07T06:30:35.714Z,75.26
2018-06-07T06:31:35.673Z,74.88
2018-06-07T06:32:35.632Z,75.26
2018-06-07T06:33:35.620Z,74.78
2018-06-07T06:34:35.548Z,74.68
2018-06-07T06:35:35.504Z,75.55
2018-06-07T06:36:35.492Z,74.78
2018-06-07T06:37:35.418Z,75.65
2018-06-07T06:38:35.381Z,75.65
2018-06-07T06:39:35.368Z,75.45
2018-06-07T06:40:35.293Z,74.88
2018-06-07T06:41:35.249Z,74.88
2018-06-07T06:42:35.212Z,74.72
2018-06-07T06:43:35.164Z,75.84
2018-06-07T06:44:35.165Z,75.78
2018-06-07T06:45:35.082Z,74.52
2018-06-07T06:46:35.036Z,74.52
2018-06-07T06:47:34.997Z,74.62
2018-06-07T06:48:34.955Z,74.62
2018-06-07T06:49:34.960Z,74.82
2018-06-07T06:50:34.871Z,74.85
2018-06-07T06:51:34.827Z,75.14
2018-06-07T06:52:34.787Z,74.95
2018-06-07T06:53:34.742Z,74.76
2018-06-07T06:54:34.733Z,74.18
2018-06-07T06:55:34.709Z,73.99
2018-06-07T06:56:34.615Z,74.08
2018-06-07T06:57:34.576Z,74.76
2018-06-07T06:58:34.529Z,75.34
2018-06-07T06:59:34.491Z,75.82
2018-06-07T07:00:34.478Z,75.72
2018-06-07T07:01:34.403Z,75.85
2018-06-07T07:02:34.364Z,75.76
2018-06-07T07:03:34.325Z,75.47
2018-06-07T07:04:34.286Z,75.47
2018-06-07T07:05:34.271Z,75.67
2018-06-07T07:06:34.232Z,75.76
2018-06-07T07:07:34.168Z,73.93
2018-06-07T07:08:34.116Z,74.12
2018-06-07T07:09:34.073Z,74.79
2018-06-07T07:10:34.067Z,74.60
2018-06-07T07:11:33.991Z,74.69
2018-06-07T07:12:33.948Z,73.06
2018-06-07T07:13:33.939Z,73.15
2018-06-07T07:14:33.871Z,72.58
2018-06-07T07:15:33.867Z,72.86
2018-06-07T07:16:33.783Z,73.58
2018-06-07T07:17:33.779Z,73.48
2018-06-07T07:18:33.713Z,73.09
2018-06-07T07:19:33.697Z,72.90
2018-06-07T07:20:33.622Z,72.42
2018-06-07T07:21:33.612Z,72.03
2018-06-07T07:22:33.566Z,71.16
2018-06-07T07:23:33.496Z,71.16
2018-06-07T07:24:33.452Z,71.84
2018-06-07T07:25:33.414Z,70.87
2018-06-07T07:26:33.404Z,70.87
2018-06-07T07:27:33.338Z,70.68
2018-06-07T07:28:33.297Z,70.97
2018-06-07T07:29:33.248Z,70.97
2018-06-07T07:30:33.210Z,71.20
2018-06-07T07:31:33.200Z,71.48
2018-06-07T07:32:33.169Z,71.97
2018-06-07T07:33:33.086Z,71.30
2018-06-07T07:34:33.097Z,71.48
2018-06-07T07:35:33.008Z,71.30
2018-06-07T07:36:32.961Z,70.62
2018-06-07T07:37:32.962Z,70.90
2018-06-07T07:38:32.880Z,71.52
2018-06-07T07:39:32.839Z,70.84
2018-06-07T07:40:32.801Z,70.84
2018-06-07T07:41:32.760Z,71.33
2018-06-07T07:42:32.759Z,70.17
2018-06-07T07:43:32.684Z,71.14
2018-06-07T07:44:32.634Z,69.01
2018-06-07T07:45:32.595Z,68.24
2018-06-07T07:46:32.556Z,68.91
2018-06-07T07:47:32.554Z,68.43
2018-06-07T07:48:32.475Z,68.72
2018-06-07T07:49:32.432Z,69.40
2018-06-07T07:50:32.395Z,68.62
2018-06-07T07:51:32.354Z,68.72
2018-06-07T07:52:32.344Z,70.10
2018-06-07T07:53:32.289Z,69.72
2018-06-07T07:54:32.234Z,69.33
2018-06-07T07:55:32.192Z,68.75
2018-06-07T07:56:32.186Z,68.98
2018-06-07T07:57:32.116Z,68.30
2018-06-07T07:58:32.076Z,67.91
2018-06-07T07:59:32.031Z,67.72
2018-06-07T08:00:31.998Z,66.75
2018-06-07T08:01:31.984Z,67.72
2018-06-07T08:02:31.916Z,66.85
2018-06-07T08:03:31.902Z,67.72
2018-06-07T08:04:31.828Z,67.95
2018-06-07T08:05:31.844Z,66.98
2018-06-07T08:06:31.749Z,65.72
2018-06-07T08:07:31.709Z,66.60
2018-06-07T08:08:31.704Z,67.18
2018-06-07T08:09:31.633Z,66.60
2018-06-07T08:10:31.592Z,65.63
2018-06-07T08:11:31.566Z,65.82
2018-06-07T08:12:31.511Z,66.60
2018-06-07T08:13:31.505Z,66.30
2018-06-07T08:14:31.445Z,66.98
2018-06-07T08:15:31.399Z,64.85
2018-06-07T08:16:31.350Z,66.11
2018-06-07T08:17:31.318Z,66.34
2018-06-07T08:18:31.315Z,66.14
2018-06-07T08:19:31.237Z,64.50
2018-06-07T08:20:31.194Z,65.17
2018-06-07T08:21:31.153Z,64.59
2018-06-07T08:22:31.112Z,63.85
2018-06-07T08:23:31.113Z,63.65
2018-06-07T08:24:31.066Z,63.78
2018-06-07T08:25:30.999Z,63.49
2018-06-07T08:26:30.955Z,63.59
2018-06-07T08:27:30.919Z,62.82
2018-06-07T08:28:30.877Z,62.36
2018-06-07T08:29:30.892Z,61.68
2018-06-07T08:30:30.799Z,60.45
2018-06-07T08:31:30.761Z,60.55
2018-06-07T08:32:30.723Z,59.48
2018-06-07T08:33:30.682Z,59.28
2018-06-07T08:34:30.677Z,59.38
2018-06-07T08:35:30.642Z,61.04
2018-06-07T08:36:30.569Z,60.61
2018-06-07T08:37:30.527Z,61.49
2018-06-07T08:38:30.491Z,60.03
2018-06-07T08:39:30.461Z,61.68
2018-06-07T08:40:30.446Z,61.00
2018-06-07T08:41:30.408Z,59.84
2018-06-07T08:42:30.335Z,60.55
2018-06-07T08:43:30.299Z,59.87
2018-06-07T08:44:30.281Z,59.48
2018-06-07T08:45:30.221Z,58.61
2018-06-07T08:46:30.227Z,58.22
2018-06-07T08:47:30.142Z,59.09
2018-06-07T08:48:30.103Z,57.64
2018-06-07T08:49:30.067Z,58.90
2018-06-07T08:50:30.031Z,58.77
2018-06-07T08:51:30.027Z,59.64
2018-06-07T08:52:29.952Z,60.45
2018-06-07T08:53:29.919Z,59.00
2018-06-07T08:54:29.881Z,58.03
2018-06-07T08:55:29.870Z,58.48
2018-06-07T08:56:29.797Z,58.22
2018-06-07T08:57:29.790Z,59.22
2018-06-07T08:58:29.720Z,56.50
2018-06-07T08:59:29.697Z,56.09
2018-06-07T09:00:29.701Z,55.50
2018-06-07T09:01:29.608Z,56.57
2018-06-07T09:02:29.614Z,55.60
2018-06-07T09:03:29.532Z,56.47
2018-06-07T09:04:29.490Z,55.89
2018-06-07T09:05:29.453Z,55.69
2018-06-07T09:06:29.411Z,56.28
2018-06-07T09:07:29.416Z,55.53
2018-06-07T09:08:29.336Z,55.79
2018-06-07T09:09:29.299Z,55.69
2018-06-07T09:10:29.264Z,56.05
2018-06-07T09:11:29.222Z,55.47
2018-06-07T09:12:29.217Z,56.86
2018-06-07T09:13:29.145Z,56.86
2018-06-07T09:14:29.106Z,56.67
2018-06-07T09:15:29.068Z,56.74
2018-06-07T09:16:29.029Z,58.19
2018-06-07T09:17:29.027Z,57.58
2018-06-07T09:18:28.955Z,57.29
2018-06-07T09:19:28.939Z,58.65
2018-06-07T09:20:28.909Z,59.26
2018-06-07T09:21:28.873Z,58.77
2018-06-07T09:22:28.802Z,58.45
2018-06-07T09:23:28.764Z,59.03
2018-06-07T09:24:28.765Z,59.42
2018-06-07T09:25:28.685Z,58.23
2018-06-07T09:26:28.682Z,58.20
2018-06-07T09:27:28.611Z,58.81
2018-06-07T09:28:28.572Z,59.39
2018-06-07T09:29:28.531Z,58.74
2018-06-07T09:30:28.527Z,58.06
2018-06-07T09:31:28.456Z,57.68
2018-06-07T09:32:28.420Z,57.97
2018-06-07T09:33:28.414Z,58.09
2018-06-07T09:34:28.379Z,56.25
2018-06-07T09:35:28.338Z,56.35
2018-06-07T09:36:28.263Z,58.67
2018-06-07T09:37:28.229Z,57.51
2018-06-07T09:38:28.193Z,56.37
2018-06-07T09:39:28.186Z,56.18
2018-06-07T09:40:28.110Z,56.28
2018-06-07T09:41:28.163Z,54.92
2018-06-07T09:42:28.034Z,54.82
2018-06-07T09:43:27.998Z,55.60
2018-06-07T09:44:27.993Z,55.11
2018-06-07T09:45:27.952Z,55.02
2018-06-07T09:46:27.885Z,55.43
2018-06-07T09:47:27.884Z,55.55
2018-06-07T09:48:27.805Z,55.75
2018-06-07T09:49:27.766Z,55.78
2018-06-07T09:50:27.730Z,53.96
2018-06-07T09:51:27.694Z,54.83
2018-06-07T09:52:27.686Z,54.35
2018-06-07T09:53:27.656Z,55.29
2018-06-07T09:54:27.576Z,54.42
2018-06-07T09:55:27.542Z,54.80
2018-06-07T09:56:27.503Z,54.71
2018-06-07T09:57:27.464Z,53.81
2018-06-07T09:58:27.515Z,53.71
2018-06-07T09:59:27.421Z,52.35
2018-06-07T10:00:27.354Z,53.30
2018-06-07T10:01:27.315Z,54.88
2018-06-07T10:02:27.274Z,55.39
2018-06-07T10:03:27.239Z,55.78
2018-06-07T10:04:27.250Z,54.74
2018-06-07T10:05:27.164Z,54.44
2018-06-07T10:06:27.127Z,54.64
2018-06-07T10:07:27.089Z,54.13
2018-06-07T10:08:27.050Z,55.78
2018-06-07T10:09:27.045Z,55.51
2018-06-07T10:10:26.981Z,53.96
2018-06-07T10:11:26.939Z,53.47
2018-06-07T10:12:26.899Z,53.86
2018-06-07T10:13:26.861Z,54.05
2018-06-07T10:14:26.864Z,53.96
2018-06-07T10:15:26.830Z,53.81
2018-06-07T10:16:26.751Z,54.29
2018-06-07T10:17:26.712Z,53.97
2018-06-07T10:18:26.673Z,54.46
2018-06-07T10:19:26.669Z,55.89
2018-06-07T10:20:26.600Z,56.37
2018-06-07T10:21:26.566Z,56.40
2018-06-07T10:22:26.527Z,54.46
2018-06-07T10:23:26.537Z,54.36
2018-06-07T10:24:26.449Z,53.20
2018-06-07T10:25:26.411Z,52.52
2018-06-07T10:26:26.380Z,53.52
2018-06-07T10:27:26.337Z,53.81
2018-06-07T10:28:26.331Z,53.52
2018-06-07T10:29:26.294Z,53.59
2018-06-07T10:30:26.232Z,52.13
2018-06-07T10:31:26.187Z,53.00
2018-06-07T10:32:26.147Z,54.00
2018-06-07T10:33:26.109Z,54.75
2018-06-07T10:34:26.117Z,54.75
2018-06-07T10:35:26.036Z,54.27
2018-06-07T10:36:25.998Z,54.34
2018-06-07T10:37:25.960Z,55.43
2018-06-07T10:38:25.923Z,54.36
2018-06-07T10:39:25.925Z,55.17
2018-06-07T10:40:25.847Z,54.00
2018-06-07T10:41:25.809Z,54.39
2018-06-07T10:42:25.773Z,54.13
2018-06-07T10:43:25.735Z,53.83
2018-06-07T10:44:25.734Z,54.44
2018-06-07T10:45:25.666Z,54.54
2018-06-07T10:46:25.630Z,52.84
2018-06-07T10:47:25.621Z,52.06
2018-06-07T10:48:25.546Z,52.45
2018-06-07T10:49:25.548Z,53.14
2018-06-07T10:50:25.472Z,52.72
2018-06-07T10:51:25.470Z,53.93
2018-06-07T10:52:25.397Z,53.93
2018-06-07T10:53:25.359Z,54.27
2018-06-07T10:54:25.322Z,56.11
2018-06-07T10:55:25.286Z,54.78
2018-06-07T10:56:25.300Z,55.65
2018-06-07T10:57:25.213Z,54.88
2018-06-07T10:58:25.174Z,55.65
2018-06-07T10:59:25.134Z,55.65
2018-06-07T11:00:25.099Z,55.75
2018-06-07T11:01:25.095Z,56.62
2018-06-07T11:02:25.025Z,56.43
2018-06-07T11:03:25.021Z,56.56
2018-06-07T11:04:24.972Z,55.61
2018-06-07T11:05:24.913Z,53.93
2018-06-07T11:06:24.908Z,55.07
2018-06-07T11:07:24.840Z,54.27
2018-06-07T11:08:24.830Z,55.24
2018-06-07T11:09:24.798Z,55.41
2018-06-07T11:10:24.724Z,55.41
2018-06-07T11:11:24.735Z,55.73
2018-06-07T11:12:24.650Z,55.94
2018-06-07T11:13:24.613Z,56.56
2018-06-07T11:14:24.579Z,56.49
2018-06-07T11:15:24.540Z,55.25
2018-06-07T11:16:24.531Z,54.99
2018-06-07T11:17:24.467Z,54.43
2018-06-07T11:18:24.426Z,53.65
2018-06-07T11:19:24.419Z,52.77
2018-06-07T11:20:24.350Z,51.17
2018-06-07T11:21:24.349Z,52.72
2018-06-07T11:22:24.275Z,54.47
2018-06-07T11:23:24.271Z,52.82
2018-06-07T11:24:24.202Z,53.42
2018-06-07T11:25:24.161Z,53.72
2018-06-07T11:26:24.166Z,54.38
2018-06-07T11:27:24.091Z,54.44
2018-06-07T11:28:24.054Z,54.03
2018-06-07T11:29:24.013Z,55.17
2018-06-07T11:30:23.981Z,55.46
2018-06-07T11:31:24.053Z,55.73
2018-06-07T11:32:23.904Z,56.40
2018-06-07T11:33:23.865Z,57.18
2018-06-07T11:34:23.828Z,57.18
2018-06-07T11:35:23.791Z,56.43
2018-06-07T11:36:23.787Z,55.65
2018-06-07T11:37:23.716Z,56.24
2018-06-07T11:38:23.681Z,56.52
2018-06-07T11:39:23.643Z,55.46
2018-06-07T11:40:23.608Z,55.27
2018-06-07T11:41:23.605Z,56.34
2018-06-07T11:42:23.534Z,56.34
2018-06-07T11:43:23.492Z,56.26
2018-06-07T11:44:23.497Z,55.58
2018-06-07T11:45:23.424Z,55.90
2018-06-07T11:46:23.434Z,54.61
2018-06-07T11:47:23.348Z,55.75
2018-06-07T11:48:23.303Z,56.26
2018-06-07T11:49:23.272Z,55.71
2018-06-07T11:50:23.232Z,55.80
2018-06-07T11:51:23.230Z,54.35
2018-06-07T11:52:23.162Z,56.51
2018-06-07T11:53:23.120Z,56.22
2018-06-07T11:54:23.081Z,54.38
2018-06-07T11:55:23.082Z,54.57
2018-06-07T11:56:23.005Z,53.89
2018-06-07T11:57:23.012Z,53.89
2018-06-07T11:58:22.934Z,53.91
2018-06-07T11:59:22.897Z,53.91
2018-06-07T12:00:22.857Z,53.04
2018-06-07T12:01:22.821Z,52.26
2018-06-07T12:02:22.820Z,50.29
2018-06-07T12:03:22.749Z,52.01
2018-06-07T12:04:22.711Z,52.62
2018-06-07T12:05:22.672Z,52.33
2018-06-07T12:06:22.640Z,52.33
2018-06-07T12:07:22.632Z,51.97
2018-06-07T12:08:22.564Z,50.80
2018-06-07T12:09:22.530Z,51.48
2018-06-07T12:10:22.489Z,52.06
2018-06-07T12:11:22.487Z,51.61
2018-06-07T12:12:22.417Z,50.99
2018-06-07T12:13:22.379Z,51.43
2018-06-07T12:14:22.345Z,51.33
2018-06-07T12:15:22.339Z,52.59
2018-06-07T12:16:22.301Z,53.08
2018-06-07T12:17:22.229Z,52.86
2018-06-07T12:18:22.195Z,52.96
2018-06-07T12:19:22.191Z,53.74
2018-06-07T12:20:22.121Z,53.52
2018-06-07T12:21:22.082Z,53.16
2018-06-07T12:22:22.048Z,53.74
2018-06-07T12:23:22.015Z,54.44
2018-06-07T12:24:22.004Z,53.50
2018-06-07T12:25:21.973Z,53.62
2018-06-07T12:26:21.904Z,52.45
2018-06-07T12:27:21.867Z,52.06
2018-06-07T12:28:21.825Z,50.97
2018-06-07T12:29:21.826Z,52.69
2018-06-07T12:30:21.750Z,53.83
2018-06-07T12:31:21.713Z,53.83
2018-06-07T12:32:21.676Z,54.10
2018-06-07T12:33:21.671Z,55.27
2018-06-07T12:34:21.601Z,55.10
2018-06-07T12:35:21.567Z,55.27
2018-06-07T12:36:21.557Z,55.58
2018-06-07T12:37:21.501Z,55.00
2018-06-07T12:38:21.498Z,54.74
2018-06-07T12:39:21.417Z,54.35
2018-06-07T12:40:21.455Z,53.79
2018-06-07T12:41:21.379Z,51.92
2018-06-07T12:42:21.308Z,53.69
2018-06-07T12:43:21.269Z,53.23
2018-06-07T12:44:21.273Z,52.11
2018-06-07T12:45:21.250Z,53.16
2018-06-07T12:46:21.166Z,53.25
2018-06-07T12:47:21.125Z,53.03
2018-06-07T12:48:21.081Z,53.59
2018-06-07T12:49:21.078Z,54.36
2018-06-07T12:50:21.012Z,55.43
2018-06-07T12:51:21.003Z,55.63
2018-06-07T12:52:20.939Z,54.66